createdAt,value
2022-08-11T00:00:58.218Z,50.34
2022-08-11T00:02:01.344Z,50.04
2022-08-11T00:03:08.078Z,50.15
2022-08-11T00:04:17.950Z,49.76
2022-08-11T00:05:26.089Z,49.82
2022-08-11T00:06:37.096Z,49.49
2022-08-11T00:07:49.995Z,49.62
2022-08-11T00:08:54.127Z,49.63
2022-08-11T00:09:57.536Z,49.48
2022-08-11T00:11:04.042Z,49.53
2022-08-11T00:12:14.843Z,49.81
2022-08-11T00:13:18.527Z,49.63
2022-08-11T00:14:37.035Z,49.88
2022-08-11T00:15:45.768Z,49.74
2022-08-11T00:17:00.123Z,49.80
2022-08-11T00:18:03.587Z,50.07
2022-08-11T00:19:06.522Z,50.22
2022-08-11T00:20:16.694Z,50.12
2022-08-11T00:21:32.537Z,49.98
2022-08-11T00:22:47.737Z,50.16
2022-08-11T00:23:57.198Z,50.47
2022-08-11T00:25:09.146Z,50.63
2022-08-11T00:26:13.553Z,50.51
2022-08-11T00:27:16.272Z,50.73
2022-08-11T00:28:37.222Z,50.81
2022-08-11T00:29:51.842Z,50.80
2022-08-11T00:30:57.806Z,50.83
2022-08-11T00:32:03.440Z,50.71
2022-08-11T00:33:07.344Z,50.71
2022-08-11T00:34:12.667Z,50.26
2022-08-11T00:35:54.864Z,49.97
2022-08-11T00:36:47.547Z,49.77
2022-08-11T00:37:56.208Z,50.02
2022-08-11T00:39:05.925Z,50.05
2022-08-11T00:40:18.842Z,50.26
2022-08-11T00:41:42.798Z,50.21
2022-08-11T00:43:07.247Z,50.14
2022-08-11T00:44:41.213Z,50.11
2022-08-11T00:46:06.941Z,50.11
2022-08-11T00:47:28.352Z,49.75
2022-08-11T00:49:09.683Z,50.60
2022-08-11T00:51:12.590Z,50.15
2022-08-11T00:52:48.807Z,50.13
2022-08-11T00:54:03.339Z,50.68
2022-08-11T00:55:36.594Z,50.66
2022-08-11T00:56:42.355Z,50.91
2022-08-11T00:57:54.700Z,50.80
2022-08-11T00:59:34.214Z,50.90
2022-08-11T01:01:05.354Z,50.82
2022-08-11T01:02:33.144Z,50.97
2022-08-11T01:04:12.770Z,51.02
2022-08-11T01:05:43.116Z,51.13
2022-08-11T01:08:01.222Z,51.07
2022-08-11T01:09:36.095Z,51.17
2022-08-11T01:10:53.451Z,51.07
2022-08-11T01:12:21.397Z,50.89
2022-08-11T01:13:31.040Z,51.44
2022-08-11T01:15:16.724Z,51.24
2022-08-11T01:16:58.418Z,51.20
2022-08-11T01:18:55.297Z,51.33
2022-08-11T01:20:47.246Z,51.53
2022-08-11T01:22:20.667Z,51.28
2022-08-11T01:23:43.027Z,51.58
2022-08-11T01:25:08.925Z,51.65
2022-08-11T01:26:49.787Z,51.60
2022-08-11T01:28:15.995Z,51.63
2022-08-11T01:29:49.267Z,51.87
2022-08-11T01:31:24.478Z,51.85
2022-08-11T01:33:05.083Z,51.73
2022-08-11T01:34:33.841Z,51.31
2022-08-11T01:36:02.589Z,51.68
2022-08-11T01:37:37.005Z,51.96
2022-08-11T01:39:02.445Z,51.74
2022-08-11T01:40:18.741Z,52.10
2022-08-11T01:42:01.720Z,52.19
2022-08-11T01:43:48.607Z,52.11
2022-08-11T01:45:18.110Z,52.23
2022-08-11T01:46:51.293Z,51.98
2022-08-11T01:48:23.413Z,52.09
2022-08-11T01:50:08.488Z,52.31
2022-08-11T01:51:39.876Z,52.53
2022-08-11T01:53:08.613Z,52.46
2022-08-11T01:54:31.922Z,52.76
2022-08-11T01:56:14.109Z,52.66
2022-08-11T01:57:27.956Z,52.78
2022-08-11T01:58:47.393Z,52.65
2022-08-11T02:00:09.732Z,52.77
2022-08-11T02:01:21.391Z,52.46
2022-08-11T02:02:54.662Z,52.52
2022-08-11T02:04:07.811Z,52.22
2022-08-11T02:05:21.150Z,52.51
2022-08-11T02:06:51.451Z,52.54
2022-08-11T02:08:33.796Z,52.82
2022-08-11T02:10:36.352Z,52.68
2022-08-11T02:11:48.258Z,52.81
2022-08-11T02:13:01.204Z,53.23
2022-08-11T02:14:25.928Z,53.09
2022-08-11T02:15:57.542Z,53.33
2022-08-11T02:17:20.210Z,53.74
2022-08-11T02:18:53.924Z,53.32
2022-08-11T02:20:34.829Z,53.27
2022-08-11T02:22:31.221Z,53.37
2022-08-11T02:24:05.420Z,53.67
2022-08-11T02:25:52.328Z,53.73
2022-08-11T02:27:24.582Z,54.11
2022-08-11T02:28:40.261Z,54.28
2022-08-11T02:30:08.134Z,54.11
2022-08-11T02:32:15.804Z,54.21
2022-08-11T02:33:36.490Z,54.52
2022-08-11T02:35:21.018Z,54.46
2022-08-11T02:36:37.674Z,53.99
2022-08-11T02:37:51.153Z,54.16
2022-08-11T02:39:10.387Z,54.16
2022-08-11T02:40:25.972Z,54.24
2022-08-11T02:41:59.536Z,54.38
2022-08-11T02:43:08.432Z,54.12
2022-08-11T02:44:35.486Z,54.39
2022-08-11T02:46:19.040Z,54.24
2022-08-11T02:48:18.262Z,54.30
2022-08-11T02:50:06.318Z,54.23
2022-08-11T02:51:23.182Z,54.19
2022-08-11T02:52:39.566Z,54.44
2022-08-11T02:53:58.598Z,54.52
2022-08-11T02:55:56.051Z,54.37
2022-08-11T02:57:43.231Z,54.58
2022-08-11T02:59:18.980Z,54.49
2022-08-11T03:00:23.465Z,54.36
2022-08-11T03:01:44.612Z,54.51
2022-08-11T03:02:56.199Z,54.55
2022-08-11T03:03:59.408Z,54.38
2022-08-11T03:05:17.884Z,54.61
2022-08-11T03:06:34.656Z,54.45
2022-08-11T03:07:41.213Z,54.40
2022-08-11T03:08:55.082Z,54.52
2022-08-11T03:10:13.816Z,54.43
2022-08-11T03:11:58.105Z,54.16
2022-08-11T03:13:41.885Z,54.19
2022-08-11T03:15:20.992Z,54.27
2022-08-11T03:16:48.517Z,54.46
2022-08-11T03:18:25.601Z,54.55
2022-08-11T03:20:00.283Z,54.24
2022-08-11T03:21:20.826Z,54.02
2022-08-11T03:22:48.484Z,53.77
2022-08-11T03:24:03.711Z,54.07
2022-08-11T03:25:18.480Z,54.17
2022-08-11T03:26:33.302Z,54.23
2022-08-11T03:28:29.437Z,54.36
2022-08-11T03:29:41.032Z,54.21
2022-08-11T03:30:46.093Z,54.48
2022-08-11T03:32:07.777Z,54.38
2022-08-11T03:33:41.168Z,54.29
2022-08-11T03:34:46.758Z,54.53
2022-08-11T03:36:28.391Z,54.36
2022-08-11T03:37:52.039Z,54.50
2022-08-11T03:39:03.893Z,54.62
2022-08-11T03:40:09.550Z,54.35
2022-08-11T03:42:02.367Z,54.00
2022-08-11T03:43:27.090Z,53.82
2022-08-11T03:44:56.040Z,54.19
2022-08-11T03:46:08.204Z,53.89
2022-08-11T03:47:30.077Z,53.82
2022-08-11T03:49:00.577Z,53.78
2022-08-11T03:50:09.054Z,53.99
2022-08-11T03:51:51.516Z,54.02
2022-08-11T03:53:28.354Z,53.74
2022-08-11T03:54:49.652Z,54.16
2022-08-11T03:56:35.567Z,53.79
2022-08-11T03:57:56.907Z,54.37
2022-08-11T03:59:24.208Z,53.81
2022-08-11T04:01:06.032Z,54.02
2022-08-11T04:02:36.358Z,54.12
2022-08-11T04:04:20.669Z,54.45
2022-08-11T04:06:02.675Z,53.99
2022-08-11T04:07:19.315Z,53.78
2022-08-11T04:09:00.409Z,53.98
2022-08-11T04:10:48.086Z,54.01
2022-08-11T04:12:09.492Z,53.77
2022-08-11T04:13:51.113Z,54.30
2022-08-11T04:15:36.744Z,53.96
2022-08-11T04:17:05.136Z,54.27
2022-08-11T04:18:32.785Z,54.05
2022-08-11T04:20:19.050Z,54.17
2022-08-11T04:21:59.574Z,54.06
2022-08-11T04:24:37.066Z,53.76
2022-08-11T04:24:59.342Z,53.36
2022-08-11T04:26:34.213Z,53.56
2022-08-11T04:27:59.065Z,53.64
2022-08-11T04:29:18.278Z,53.62
2022-08-11T04:30:26.900Z,54.05
2022-08-11T04:31:51.133Z,53.90
2022-08-11T04:33:35.248Z,53.99
2022-08-11T04:35:20.529Z,53.36
2022-08-11T04:37:02.995Z,53.51
2022-08-11T04:38:24.556Z,53.30
2022-08-11T04:39:49.436Z,53.50
2022-08-11T04:41:15.373Z,53.68
2022-08-11T04:42:48.657Z,53.30
2022-08-11T04:44:19.752Z,53.05
2022-08-11T04:45:28.475Z,53.19
2022-08-11T04:46:54.014Z,53.16
2022-08-11T04:48:35.406Z,53.53
2022-08-11T04:50:39.829Z,53.14
2022-08-11T04:52:19.762Z,52.65
2022-08-11T04:54:09.334Z,53.08
2022-08-11T04:56:24.174Z,52.46
2022-08-11T04:58:09.064Z,52.87
2022-08-11T04:59:39.254Z,52.57
2022-08-11T05:01:31.869Z,51.84
2022-08-11T05:03:11.097Z,52.47
2022-08-11T05:05:00.156Z,52.32
2022-08-11T05:06:30.823Z,51.91
2022-08-11T05:07:59.324Z,52.39
2022-08-11T05:09:16.915Z,52.20
2022-08-11T05:10:39.982Z,52.15
2022-08-11T05:11:48.805Z,51.87
2022-08-11T05:13:22.966Z,51.92
2022-08-11T05:15:08.774Z,51.71
2022-08-11T05:16:32.352Z,51.52
2022-08-11T05:17:58.661Z,51.68
2022-08-11T05:19:23.540Z,51.68
2022-08-11T05:20:45.857Z,51.45
2022-08-11T05:22:14.492Z,51.46
2022-08-11T05:23:43.169Z,51.18
2022-08-11T05:26:42.672Z,50.75
2022-08-11T05:27:11.301Z,50.77
2022-08-11T05:28:57.126Z,50.80
2022-08-11T05:30:30.629Z,50.32
2022-08-11T05:32:00.171Z,50.05
2022-08-11T05:33:27.122Z,49.36
2022-08-11T05:34:50.232Z,50.10
2022-08-11T05:36:13.142Z,49.88
2022-08-11T05:37:33.323Z,49.40
2022-08-11T05:38:56.281Z,49.26
2022-08-11T05:40:27.373Z,49.31
2022-08-11T05:41:50.751Z,49.51
2022-08-11T05:43:19.933Z,49.42
2022-08-11T05:44:41.662Z,48.65
2022-08-11T05:46:15.170Z,48.94
2022-08-11T05:47:46.658Z,49.29
2022-08-11T05:49:08.969Z,48.93
2022-08-11T05:50:33.362Z,48.78
2022-08-11T05:52:05.379Z,48.81
2022-08-11T05:53:40.244Z,48.72
2022-08-11T05:55:10.668Z,48.84
2022-08-11T05:56:20.313Z,47.79
2022-08-11T05:57:45.529Z,47.60
2022-08-11T05:58:55.419Z,47.82
2022-08-11T06:00:05.709Z,47.54
2022-08-11T06:01:14.706Z,47.64
2022-08-11T06:02:18.506Z,47.72
2022-08-11T06:03:28.189Z,47.62
2022-08-11T06:04:31.881Z,47.08
2022-08-11T06:05:43.534Z,47.21
2022-08-11T06:06:59.700Z,46.97
2022-08-11T06:08:05.852Z,47.15
2022-08-11T06:09:09.751Z,46.98
2022-08-11T06:10:13.429Z,46.93
2022-08-11T06:11:18.903Z,47.05
2022-08-11T06:12:43.506Z,46.68
2022-08-11T06:13:46.606Z,46.50
2022-08-11T06:14:57.641Z,46.79
2022-08-11T06:16:06.301Z,46.25
2022-08-11T06:17:11.153Z,46.66
2022-08-11T06:18:14.697Z,46.63
2022-08-11T06:19:21.359Z,46.28
2022-08-11T06:20:25.775Z,46.17
2022-08-11T06:21:36.263Z,46.40
2022-08-11T06:22:42.673Z,46.28
2022-08-11T06:23:45.622Z,46.03
2022-08-11T06:24:57.473Z,46.16
2022-08-11T06:26:01.438Z,45.89
2022-08-11T06:27:12.632Z,46.08
2022-08-11T06:28:21.103Z,45.76
2022-08-11T06:29:37.966Z,45.49
2022-08-11T06:30:49.698Z,45.57
2022-08-11T06:32:01.429Z,45.55
2022-08-11T06:33:08.545Z,45.57
2022-08-11T06:34:35.672Z,45.66
2022-08-11T06:36:13.701Z,45.91
2022-08-11T06:37:24.223Z,44.78
2022-08-11T06:38:30.041Z,45.05
2022-08-11T06:39:54.757Z,44.15
2022-08-11T06:41:22.018Z,44.81
2022-08-11T06:42:52.032Z,45.24
2022-08-11T06:44:05.120Z,44.40
2022-08-11T06:45:35.482Z,44.65
2022-08-11T06:46:43.581Z,44.22
2022-08-11T06:47:47.964Z,44.28
2022-08-11T06:48:51.337Z,44.28
2022-08-11T06:50:16.892Z,44.12
2022-08-11T06:51:20.786Z,44.13
2022-08-11T06:52:35.079Z,43.54
2022-08-11T06:54:04.244Z,43.07
2022-08-11T06:55:12.596Z,42.97
2022-08-11T06:57:26.406Z,41.86
2022-08-11T06:58:44.189Z,42.32
2022-08-11T07:00:08.258Z,42.83
2022-08-11T07:01:13.618Z,42.99
2022-08-11T07:02:22.488Z,43.25
2022-08-11T07:03:28.911Z,42.15
2022-08-11T07:04:43.391Z,42.65
2022-08-11T07:05:52.254Z,42.67
2022-08-11T07:07:41.513Z,42.56
2022-08-11T07:09:47.956Z,42.30
2022-08-11T07:11:37.762Z,42.41
2022-08-11T07:13:01.913Z,41.70
2022-08-11T07:14:26.287Z,42.06
2022-08-11T07:16:12.104Z,42.18
2022-08-11T07:17:09.122Z,42.01
2022-08-11T07:18:50.775Z,41.29
2022-08-11T07:20:17.644Z,41.27
2022-08-11T07:22:01.888Z,40.49
2022-08-11T07:23:28.660Z,40.87
2022-08-11T07:25:01.317Z,39.23
2022-08-11T07:26:25.560Z,40.19
2022-08-11T07:27:55.009Z,40.18
2022-08-11T07:28:59.856Z,40.17
2022-08-11T07:30:09.523Z,39.45
2022-08-11T07:31:36.018Z,38.75
2022-08-11T07:32:51.464Z,39.76
2022-08-11T07:34:18.082Z,38.54
2022-08-11T07:35:32.978Z,38.66
2022-08-11T07:36:40.083Z,38.10
2022-08-11T07:37:51.160Z,37.98
2022-08-11T07:39:11.851Z,38.21
2022-08-11T07:40:16.147Z,38.11
2022-08-11T07:41:22.894Z,37.64
2022-08-11T07:42:31.831Z,38.18
2022-08-11T07:43:35.498Z,37.88
2022-08-11T07:44:59.300Z,38.03
2022-08-11T07:46:23.002Z,37.90
2022-08-11T07:47:46.173Z,37.60
2022-08-11T07:49:09.114Z,36.77
2022-08-11T07:50:32.012Z,36.41
2022-08-11T07:51:55.685Z,35.66
2022-08-11T07:53:00.286Z,36.14
2022-08-11T07:54:16.624Z,36.81
2022-08-11T07:55:50.960Z,35.65
2022-08-11T07:56:54.944Z,35.64
2022-08-11T07:58:20.113Z,35.00
2022-08-11T08:00:00.543Z,35.55
2022-08-11T08:01:24.724Z,35.90
2022-08-11T08:02:46.460Z,36.34
2022-08-11T08:04:08.703Z,36.19
2022-08-11T08:05:30.198Z,35.90
2022-08-11T08:06:53.086Z,35.45
2022-08-11T08:08:17.999Z,35.74
2022-08-11T08:09:40.745Z,34.95
2022-08-11T08:11:02.544Z,35.75
2022-08-11T08:12:24.872Z,35.80
2022-08-11T08:13:47.171Z,35.09
2022-08-11T08:15:13.847Z,35.90
2022-08-11T08:16:35.716Z,36.53
2022-08-11T08:18:20.556Z,37.54
2022-08-11T08:19:19.256Z,37.43
2022-08-11T08:20:28.283Z,37.76
2022-08-11T08:21:32.346Z,38.13
2022-08-11T08:22:38.742Z,38.00
2022-08-11T08:23:45.199Z,37.19
2022-08-11T08:24:49.244Z,37.26
2022-08-11T08:25:52.801Z,37.15
2022-08-11T08:27:00.611Z,37.35
2022-08-11T08:28:07.691Z,37.49
2022-08-11T08:29:29.746Z,37.22
2022-08-11T08:30:47.621Z,37.73
2022-08-11T08:31:53.497Z,36.97
2022-08-11T08:32:57.958Z,36.59
2022-08-11T08:34:00.846Z,36.85
2022-08-11T08:35:05.084Z,37.03
2022-08-11T08:36:17.312Z,37.82
2022-08-11T08:37:45.671Z,36.89
2022-08-11T08:38:49.958Z,36.25
2022-08-11T08:39:54.015Z,36.57
2022-08-11T08:40:57.564Z,36.74
2022-08-11T08:42:04.370Z,37.28
2022-08-11T08:43:15.430Z,36.30
2022-08-11T08:44:37.793Z,35.76
2022-08-11T08:45:44.670Z,35.31
2022-08-11T08:46:55.609Z,35.50
2022-08-11T08:48:05.167Z,36.30
2022-08-11T08:49:11.480Z,35.81
2022-08-11T08:50:21.732Z,35.88
2022-08-11T08:51:58.759Z,36.14
2022-08-11T08:53:05.925Z,36.29
2022-08-11T08:54:14.795Z,35.50
2022-08-11T08:55:21.888Z,34.73
2022-08-11T08:56:28.660Z,34.64
2022-08-11T08:57:39.596Z,35.61
2022-08-11T08:58:51.750Z,33.63
2022-08-11T08:59:55.410Z,34.63
2022-08-11T09:01:00.870Z,35.21
2022-08-11T09:02:06.476Z,34.96
2022-08-11T09:03:39.130Z,34.74
2022-08-11T09:04:36.276Z,34.04
2022-08-11T09:05:40.083Z,33.81
2022-08-11T09:06:44.019Z,33.40
2022-08-11T09:07:55.358Z,31.95
2022-08-11T09:08:58.346Z,30.85
2022-08-11T09:10:01.904Z,31.43
2022-08-11T09:11:24.489Z,31.49
2022-08-11T09:12:46.370Z,31.11
2022-08-11T09:14:05.623Z,32.38
2022-08-11T09:15:12.025Z,32.85
2022-08-11T09:16:16.492Z,31.56
2022-08-11T09:17:21.395Z,31.02
2022-08-11T09:18:24.501Z,31.45
2022-08-11T09:19:27.693Z,31.86
2022-08-11T09:20:34.387Z,30.88
2022-08-11T09:21:48.810Z,30.27
2022-08-11T09:24:59.363Z,31.08
2022-08-11T09:26:21.714Z,31.29
2022-08-11T09:27:29.409Z,30.88
2022-08-11T09:28:33.177Z,32.16
2022-08-11T09:29:39.414Z,32.45
2022-08-11T09:30:43.992Z,32.49
2022-08-11T09:31:49.338Z,31.14
2022-08-11T09:32:58.307Z,30.96
2022-08-11T09:34:02.412Z,30.36
2022-08-11T09:35:06.157Z,30.40
2022-08-11T09:36:28.710Z,30.15
2022-08-11T09:37:54.945Z,29.30
2022-08-11T09:39:19.584Z,29.30
2022-08-11T09:40:32.592Z,28.34
2022-08-11T09:42:01.271Z,29.01
2022-08-11T09:43:21.673Z,29.40
2022-08-11T09:44:47.316Z,29.81
2022-08-11T09:45:54.290Z,30.41
2022-08-11T09:47:00.488Z,30.50
2022-08-11T09:48:05.687Z,29.91
2022-08-11T09:49:08.714Z,30.52
2022-08-11T09:50:12.289Z,31.11
2022-08-11T09:51:17.468Z,30.81
2022-08-11T09:52:22.930Z,32.29
2022-08-11T09:53:36.433Z,32.63
2022-08-11T09:54:48.263Z,32.80
2022-08-11T09:55:52.364Z,33.19
2022-08-11T09:57:23.657Z,32.97
2022-08-11T09:58:41.743Z,33.30
2022-08-11T09:59:53.093Z,32.81
2022-08-11T10:01:27.660Z,32.71
2022-08-11T10:02:31.374Z,32.25
2022-08-11T10:03:40.475Z,32.40
2022-08-11T10:04:47.294Z,33.25
2022-08-11T10:06:20.770Z,32.38
2022-08-11T10:07:51.538Z,31.36
2022-08-11T10:09:08.278Z,31.48
2022-08-11T10:10:32.439Z,28.52
2022-08-11T10:14:34.063Z,28.03
2022-08-11T10:15:59.610Z,28.53
2022-08-11T10:17:09.555Z,29.34
2022-08-11T10:18:37.789Z,29.02
2022-08-11T10:19:43.650Z,28.89
2022-08-11T10:20:50.463Z,29.23
2022-08-11T10:22:14.235Z,29.07
2022-08-11T10:24:00.303Z,28.77
2022-08-11T10:25:19.739Z,29.20
2022-08-11T10:26:43.711Z,28.79
2022-08-11T10:28:17.674Z,29.80
2022-08-11T10:29:37.467Z,30.58
2022-08-11T10:30:58.922Z,29.33
2022-08-11T10:32:21.548Z,28.09
2022-08-11T10:33:58.987Z,28.25
2022-08-11T10:35:02.981Z,27.59
2022-08-11T10:36:16.412Z,26.92
2022-08-11T10:37:24.032Z,25.76
2022-08-11T10:38:52.537Z,26.71
2022-08-11T10:39:56.702Z,26.75
2022-08-11T10:41:19.419Z,26.90
2022-08-11T10:42:57.315Z,28.67
2022-08-11T10:44:03.998Z,27.29
2022-08-11T10:45:27.492Z,26.46
2022-08-11T10:46:50.238Z,26.05
2022-08-11T10:47:57.908Z,25.49
2022-08-11T10:49:02.256Z,25.88
2022-08-11T10:50:29.314Z,25.12
2022-08-11T10:51:53.867Z,25.16
2022-08-11T10:53:19.563Z,24.76
2022-08-11T10:54:42.323Z,26.52
2022-08-11T10:57:34.575Z,27.14
2022-08-11T10:58:49.637Z,27.24
2022-08-11T10:59:55.204Z,27.25
2022-08-11T11:00:59.404Z,27.30
2022-08-11T11:02:02.648Z,25.96
2022-08-11T11:03:22.185Z,26.17
2022-08-11T11:04:39.570Z,25.66
2022-08-11T11:06:27.808Z,25.15
2022-08-11T11:07:17.514Z,24.76
2022-08-11T11:10:02.064Z,23.15
2022-08-11T11:11:07.997Z,22.64
2022-08-11T11:12:39.958Z,22.30
2022-08-11T11:14:08.287Z,23.06
2022-08-11T11:15:32.060Z,23.14
2022-08-11T11:16:50.339Z,23.15
2022-08-11T11:18:04.929Z,22.79
2022-08-11T11:19:10.033Z,23.07
2022-08-11T11:20:34.525Z,23.56
2022-08-11T11:21:42.309Z,23.27
2022-08-11T11:22:52.436Z,23.75
2022-08-11T11:24:20.125Z,23.67
2022-08-11T11:25:44.432Z,23.52
2022-08-11T11:27:21.230Z,24.76
2022-08-11T11:28:41.672Z,24.32
2022-08-11T11:30:02.504Z,24.82
2022-08-11T11:31:22.566Z,25.08
2022-08-11T11:32:36.092Z,25.42
2022-08-11T11:34:06.711Z,26.01
2022-08-11T11:35:52.753Z,26.50
2022-08-11T11:36:59.317Z,25.19
2022-08-11T11:38:04.982Z,25.30
2022-08-11T11:39:09.994Z,24.96
2022-08-11T11:40:21.603Z,25.07
2022-08-11T11:41:32.436Z,25.05
2022-08-11T11:42:35.143Z,25.66
2022-08-11T11:43:38.380Z,24.96
2022-08-11T11:44:44.908Z,26.52
2022-08-11T11:45:47.957Z,25.09
2022-08-11T11:46:52.539Z,25.21
2022-08-11T11:47:59.196Z,26.21
2022-08-11T11:49:15.322Z,25.64
2022-08-11T11:50:38.630Z,25.34
2022-08-11T11:51:42.840Z,25.42
2022-08-11T11:52:48.564Z,24.68
2022-08-11T11:53:52.641Z,25.01
2022-08-11T11:54:57.710Z,25.07
2022-08-11T11:56:02.135Z,25.45
2022-08-11T11:57:25.886Z,25.40
2022-08-11T11:58:48.429Z,24.67
2022-08-11T12:00:12.669Z,24.61
2022-08-11T12:01:20.252Z,25.21
2022-08-11T12:02:23.160Z,23.75
2022-08-11T12:03:29.033Z,23.86
2022-08-11T12:04:32.230Z,23.93
2022-08-11T12:05:36.428Z,23.73
2022-08-11T12:06:40.078Z,24.13
2022-08-11T12:08:05.306Z,23.57
2022-08-11T12:09:18.591Z,24.14
2022-08-11T12:10:21.890Z,23.73
2022-08-11T12:11:46.201Z,24.20
2022-08-11T12:13:07.942Z,24.54
2022-08-11T12:14:11.094Z,24.54
2022-08-11T12:15:13.994Z,24.27
2022-08-11T12:16:34.668Z,24.47
2022-08-11T12:17:39.508Z,23.82
2022-08-11T12:18:46.051Z,24.59
2022-08-11T12:19:50.047Z,25.03
2022-08-11T12:20:53.171Z,25.51
2022-08-11T12:22:16.819Z,25.57
2022-08-11T12:23:38.578Z,26.39
2022-08-11T12:25:04.852Z,25.99
2022-08-11T12:26:27.463Z,25.93
2022-08-11T12:27:31.528Z,25.44
2022-08-11T12:28:35.639Z,25.93
2022-08-11T12:29:41.271Z,25.48
2022-08-11T12:30:50.696Z,26.25
2022-08-11T12:31:58.914Z,25.89
2022-08-11T12:33:01.786Z,26.25
2022-08-11T12:34:06.912Z,25.62
2022-08-11T12:35:09.762Z,25.25
2022-08-11T12:36:16.501Z,25.38
2022-08-11T12:37:32.389Z,26.01
2022-08-11T12:38:36.729Z,26.21
2022-08-11T12:40:16.940Z,26.52
2022-08-11T12:41:52.404Z,26.06
2022-08-11T12:43:21.556Z,26.19
2022-08-11T12:44:47.083Z,26.69
2022-08-11T12:45:58.822Z,26.79
2022-08-11T12:47:02.292Z,26.53
2022-08-11T12:49:00.675Z,26.11
2022-08-11T12:50:22.745Z,26.47
2022-08-11T12:52:11.621Z,25.69
2022-08-11T12:53:13.511Z,25.53
2022-08-11T12:54:28.783Z,25.49
2022-08-11T12:56:03.937Z,24.95
2022-08-11T12:57:36.554Z,24.78
2022-08-11T12:58:42.049Z,25.26
2022-08-11T13:00:04.828Z,24.66
2022-08-11T13:01:28.261Z,24.98
2022-08-11T13:02:50.522Z,24.99
2022-08-11T13:04:13.222Z,25.00
2022-08-11T13:05:16.880Z,24.41
2022-08-11T13:06:23.430Z,25.08
2022-08-11T13:07:50.786Z,25.87
2022-08-11T13:09:01.506Z,26.00
2022-08-11T13:10:06.691Z,25.39
2022-08-11T13:11:55.601Z,25.65
2022-08-11T13:12:59.143Z,25.93
2022-08-11T13:14:03.273Z,26.56
2022-08-11T13:15:07.104Z,26.54
2022-08-11T13:16:11.459Z,27.19
2022-08-11T13:17:40.032Z,26.81
2022-08-11T13:18:47.084Z,27.16
2022-08-11T13:19:52.159Z,27.44
2022-08-11T13:20:57.326Z,27.24
2022-08-11T13:22:01.227Z,26.60
2022-08-11T13:23:04.584Z,26.25
2022-08-11T13:24:07.782Z,25.95
2022-08-11T13:25:15.128Z,26.12
2022-08-11T13:26:20.929Z,26.17
2022-08-11T13:27:28.692Z,26.48
2022-08-11T13:28:32.996Z,25.91
2022-08-11T13:29:36.568Z,26.04
2022-08-11T13:30:59.247Z,26.13
2022-08-11T13:32:02.378Z,26.86
2022-08-11T13:33:07.836Z,26.58
2022-08-11T13:34:11.323Z,26.45
2022-08-11T13:35:20.465Z,27.28
2022-08-11T13:36:27.637Z,28.20
2022-08-11T13:38:17.755Z,28.77
2022-08-11T13:38:56.224Z,29.11
2022-08-11T13:40:02.530Z,29.70
2022-08-11T13:41:25.718Z,29.43
2022-08-11T13:42:29.184Z,29.94
2022-08-11T13:43:38.304Z,29.91
2022-08-11T13:44:42.328Z,30.34
2022-08-11T13:45:48.062Z,30.53
2022-08-11T13:46:55.414Z,30.41
2022-08-11T13:47:59.401Z,29.96
2022-08-11T13:49:03.566Z,30.29
2022-08-11T13:50:08.097Z,30.19
2022-08-11T13:51:34.588Z,29.95
2022-08-11T13:52:42.187Z,30.34
2022-08-11T13:53:47.800Z,30.40
2022-08-11T13:54:53.822Z,29.35
2022-08-11T13:56:00.730Z,29.54
2022-08-11T13:57:09.265Z,28.95
2022-08-11T13:58:20.672Z,29.12
2022-08-11T13:59:51.839Z,28.91
2022-08-11T14:00:55.868Z,29.09
2022-08-11T14:02:28.752Z,28.97
2022-08-11T14:04:28.433Z,29.72
2022-08-11T14:05:13.487Z,30.01
2022-08-11T14:06:20.248Z,29.66
2022-08-11T14:07:27.744Z,30.15
2022-08-11T14:08:40.239Z,29.51
2022-08-11T14:09:46.863Z,29.75
2022-08-11T14:12:22.332Z,30.56
2022-08-11T14:13:09.475Z,30.62
2022-08-11T14:14:17.869Z,30.09
2022-08-11T14:15:27.904Z,30.41
2022-08-11T14:16:37.192Z,30.05
2022-08-11T14:17:48.963Z,30.20
2022-08-11T14:18:57.966Z,30.27
2022-08-11T14:20:38.753Z,30.35
2022-08-11T14:21:49.173Z,30.20
2022-08-11T14:22:57.596Z,30.12
2022-08-11T14:24:02.961Z,30.59
2022-08-11T14:25:06.632Z,30.78
2022-08-11T14:26:29.171Z,30.92
2022-08-11T14:28:25.594Z,31.04
2022-08-11T14:29:13.610Z,30.97
2022-08-11T14:30:35.052Z,31.21
2022-08-11T14:31:41.068Z,31.06
2022-08-11T14:32:53.067Z,31.17
2022-08-11T14:34:03.242Z,30.82
2022-08-11T14:35:06.553Z,30.71
2022-08-11T14:36:11.961Z,31.31
2022-08-11T14:37:19.446Z,31.25
2022-08-11T14:38:22.519Z,31.26
2022-08-11T14:39:28.915Z,30.55
2022-08-11T14:40:50.540Z,30.63
2022-08-11T14:42:15.864Z,30.91
2022-08-11T14:44:02.775Z,29.75
2022-08-11T14:45:57.475Z,30.30
2022-08-11T14:47:23.141Z,30.83
2022-08-11T14:48:28.941Z,30.06
2022-08-11T14:49:35.863Z,30.70
2022-08-11T14:50:39.688Z,30.51
2022-08-11T14:51:46.881Z,30.67
2022-08-11T14:53:01.968Z,30.04
2022-08-11T14:54:23.488Z,29.72
2022-08-11T14:55:47.726Z,29.73
2022-08-11T14:56:50.628Z,30.03
2022-08-11T14:57:56.713Z,29.66
2022-08-11T14:59:01.599Z,30.53
2022-08-11T15:00:07.926Z,29.72
2022-08-11T15:01:30.954Z,29.46
2022-08-11T15:02:56.649Z,29.76
2022-08-11T15:04:35.326Z,29.87
2022-08-11T15:05:24.939Z,29.25
2022-08-11T15:06:28.878Z,28.97
2022-08-11T15:07:35.049Z,29.45
2022-08-11T15:08:55.489Z,29.96
2022-08-11T15:10:14.805Z,29.14
2022-08-11T15:11:38.613Z,28.87
2022-08-11T15:12:45.083Z,29.43
2022-08-11T15:13:51.540Z,29.06
2022-08-11T15:15:13.526Z,29.87
2022-08-11T15:16:34.903Z,28.97
2022-08-11T15:17:43.387Z,29.20
2022-08-11T15:18:46.629Z,29.31
2022-08-11T15:20:09.146Z,28.55
2022-08-11T15:21:30.341Z,29.42
2022-08-11T15:22:51.573Z,29.64
2022-08-11T15:24:12.906Z,28.41
2022-08-11T15:25:16.459Z,28.33
2022-08-11T15:26:48.953Z,29.34
2022-08-11T15:28:13.335Z,28.74
2022-08-11T15:29:39.868Z,29.38
2022-08-11T15:31:02.826Z,28.70
2022-08-11T15:32:24.187Z,28.55
2022-08-11T15:33:47.964Z,28.93
2022-08-11T15:35:19.073Z,29.28
2022-08-11T15:36:42.441Z,29.27
2022-08-11T15:37:48.368Z,28.57
2022-08-11T15:39:07.925Z,28.37
2022-08-11T15:40:39.985Z,28.48
2022-08-11T15:42:28.135Z,28.50
2022-08-11T15:44:01.721Z,28.73
2022-08-11T15:45:28.002Z,28.41
2022-08-11T15:46:33.328Z,28.33
2022-08-11T15:48:05.279Z,28.11
2022-08-11T15:50:11.128Z,28.43
2022-08-11T15:50:56.267Z,28.54
2022-08-11T15:52:08.214Z,28.36
2022-08-11T15:53:33.339Z,29.06
2022-08-11T15:54:42.309Z,28.69
2022-08-11T15:55:46.149Z,28.93
2022-08-11T15:56:52.162Z,29.21
2022-08-11T15:58:16.776Z,29.56
2022-08-11T15:59:41.735Z,28.79
2022-08-11T16:01:09.057Z,29.42
2022-08-11T16:02:18.012Z,29.66
2022-08-11T16:04:06.815Z,30.14
2022-08-11T16:05:14.615Z,29.82
2022-08-11T16:06:50.691Z,30.02
2022-08-11T16:07:57.080Z,29.54
2022-08-11T16:09:04.262Z,29.71
2022-08-11T16:10:21.746Z,30.09
2022-08-11T16:11:26.144Z,30.30
2022-08-11T16:12:33.050Z,30.28
2022-08-11T16:13:42.042Z,30.69
2022-08-11T16:15:09.340Z,30.37
2022-08-11T16:16:17.361Z,30.09
2022-08-11T16:17:23.362Z,30.73
2022-08-11T16:18:41.030Z,30.64
2022-08-11T16:19:49.432Z,30.59
2022-08-11T16:20:57.134Z,30.60
2022-08-11T16:21:59.868Z,31.03
2022-08-11T16:23:08.333Z,30.77
2022-08-11T16:27:06.062Z,30.95
2022-08-11T16:27:06.984Z,30.79
2022-08-11T16:27:12.939Z,31.05
2022-08-11T16:28:19.009Z,30.57
2022-08-11T16:29:25.301Z,31.03
2022-08-11T16:30:29.710Z,31.80
2022-08-11T16:31:33.752Z,31.90
2022-08-11T16:32:40.953Z,32.68
2022-08-11T16:33:49.551Z,32.47
2022-08-11T16:35:41.739Z,32.82
2022-08-11T16:37:03.576Z,32.83
2022-08-11T16:38:27.604Z,32.93
2022-08-11T16:39:31.738Z,33.11
2022-08-11T16:40:35.581Z,33.33
2022-08-11T16:42:00.070Z,33.58
2022-08-11T16:43:26.163Z,34.05
2022-08-11T16:44:48.526Z,33.71
2022-08-11T16:46:10.821Z,34.35
2022-08-11T16:47:18.388Z,34.13
2022-08-11T16:48:43.775Z,34.31
2022-08-11T16:49:52.623Z,34.65
2022-08-11T16:51:00.072Z,34.73
2022-08-11T16:52:11.082Z,34.78
2022-08-11T16:53:17.641Z,34.48
2022-08-11T16:54:20.904Z,34.98
2022-08-11T16:55:52.709Z,34.96
2022-08-11T16:56:54.131Z,35.03
2022-08-11T16:58:19.444Z,35.12
2022-08-11T16:59:36.496Z,34.76
2022-08-11T17:00:41.129Z,35.11
2022-08-11T17:01:49.204Z,35.31
2022-08-11T17:03:12.636Z,35.74
2022-08-11T17:04:50.679Z,35.43
2022-08-11T17:06:13.192Z,35.83